EDT,Max TemperatureF,Mean TemperatureF,Min TemperatureF,Max Dew PointF,MeanDew PointF,Min DewpointF,Max Humidity, Mean Humidity, Min Humidity, Max Sea Level PressureIn, Mean Sea Level PressureIn, Min Sea Level PressureIn, Max VisibilityMiles, Mean VisibilityMiles, Min VisibilityMiles, Max Wind SpeedMPH, Mean Wind SpeedMPH, Max Gust SpeedMPH,PrecipitationIn, CloudCover, Events, WindDirDegrees
2012-3-1,47,41,34,32,29,26,81,63,50,29.91,29.83,29.68,10,10,10,28,14,37,0.00,3,,261
2012-3-2,59,45,31,57,44,28,100,82,59,29.88,29.52,29.31,10,9,1,37,10,45,0.38,5,Rain-Thunderstorm,164
2012-3-3,39,36,32,30,25,20,77,65,52,29.86,29.77,29.62,10,10,2,23,17,34,0.00,7,Snow,252
2012-3-4,34,30,26,27,23,19,86,72,55,29.94,29.87,29.83,10,8,2,18,9,22,0.00,7,Snow,255
2012-3-5,35,30,26,27,22,15,93,74,43,30.47,30.20,29.90,10,9,2,18,8,24,0.00,6,Snow,294
2012-3-6,62,44,27,31,24,20,81,48,24,30.47,30.33,30.22,10,10,10,22,10,29,0.00,2,,173
2012-3-7,68,58,47,44,35,21,53,42,28,30.33,30.22,30.12,10,10,10,29,18,38,0.00,4,,194
2012-3-8,60,48,35,55,47,29,100,84,53,30.26,30.04,29.98,10,7,2,20,16,30,0.91,7,Rain,231
2012-3-9,43,36,29,28,21,16,86,56,35,30.54,30.40,30.28,10,10,10,21,11,31,0.00,1,,296
2012-3-10,52,37,22,25,19,15,82,52,27,30.58,30.50,30.39,10,10,10,12,4,,0.00,1,,148
2012-3-11,66,47,28,35,30,22,81,50,28,30.42,30.34,30.19,10,10,10,14,4,,0.00,4,,180
2012-3-12,62,56,50,58,51,33,94,83,44,30.21,30.09,29.96,10,9,2,22,9,30,0.23,8,Rain,182
2012-3-13,74,63,49,58,54,45,100,72,40,30.15,30.07,29.99,10,10,10,20,12,26,0.00,5,,250
2012-3-14,77,60,42,54,49,42,97,68,42,30.19,30.14,30.09,10,10,10,16,3,20,0.00,1,Fog,199
2012-3-15,72,64,57,63,57,50,85,75,66,30.14,30.10,30.06,10,10,10,20,8,29,0.00,6,Rain-Thunderstorm,189
2012-3-16,74,64,55,58,55,53,94,78,50,30.18,30.14,30.10,10,10,10,12,7,,0.00,5,,185
2012-3-17,73,60,47,59,54,47,100,84,57,30.21,30.16,30.10,10,7,2,13,2,17,0.00,2,Fog,146
2012-3-18,78,68,58,61,58,55,90,75,53,30.17,30.10,30.04,10,10,9,16,6,21,0.00,5,Rain-Thunderstorm,191
2012-3-19,81,67,55,63,58,54,100,74,44,30.14,30.09,30.05,10,9,3,10,4,,0.00,4,Fog,181
2012-3-20,83,68,53,61,55,52,95,66,38,30.17,30.11,30.07,10,10,10,8,2,,0.00,5,,117
2012-3-21,85,68,52,58,55,50,93,64,34,30.19,30.13,30.07,10,10,10,7,2,,0.00,1,,140
2012-3-22,81,68,55,59,56,52,92,68,43,30.17,30.11,30.07,10,10,10,9,2,,0.00,2,,193
2012-3-23,70,64,59,64,62,56,100,92,78,30.07,29.96,29.81,10,9,2,16,4,,0.40,6,Rain-Thunderstorm,144
2012-3-24,64,58,53,61,54,50,100,86,61,29.87,29.84,29.79,10,10,1,24,7,32,0.42,7,Rain-Thunderstorm,234
2012-3-25,63,56,48,58,54,48,100,90,71,30.01,29.93,29.86,10,7,0,14,5,,0.00,6,Fog,341
2012-3-26,54,46,34,52,36,24,100,69,48,30.36,30.22,30.02,10,10,7,21,9,25,0.00,2,Fog,25
2012-3-27,63,46,30,33,26,22,72,49,26,30.38,30.24,30.01,10,10,10,15,7,,0.00,3,,118
2012-3-28,74,61,48,57,43,33,72,50,27,29.99,29.89,29.84,10,10,10,23,12,36,0.00,3,,255
2012-3-29,59,50,40,41,36,34,80,60,40,30.11,30.04,29.98,10,10,10,13,7,,0.00,4,,15
2012-3-30,76,58,40,61,48,34,94,78,51,30.06,29.84,29.64,10,9,3,21,10,37,0.56,6,Rain-Thunderstorm,138
2012-3-31,48,46,42,45,41,38,94,85,76,29.97,29.92,29.83,10,9,4,13,8,,0.00,8,,18